sensor_id;sensor_type;location;lat;lon;timestamp;P1;durP1;ratioP1;P2;durP2;ratioP2
4724;SDS011;2376;53.544;10.226;2023-02-04T00:01:30;2.10;;;1.40;;
4724;SDS011;2376;53.544;10.226;2023-02-04T00:03:58;1.23;;;1.13;;
4724;SDS011;2376;53.544;10.226;2023-02-04T00:06:26;2.17;;;1.07;;
4724;SDS011;2376;53.544;10.226;2023-02-04T00:08:53;1.10;;;1.10;;
4724;SDS011;2376;53.544;10.226;2023-02-04T00:11:19;3.27;;;1.20;;
4724;SDS011;2376;53.544;10.226;2023-02-04T00:13:46;1.13;;;0.93;;
4724;SDS011;2376;53.544;10.226;2023-02-04T00:16:13;1.50;;;1.33;;
4724;SDS011;2376;53.544;10.226;2023-02-04T00:18:39;1.23;;;1.13;;
4724;SDS011;2376;53.544;10.226;2023-02-04T00:21:06;3.03;;;1.47;;
4724;SDS011;2376;53.544;10.226;2023-02-04T00:23:34;1.50;;;1.40;;
4724;SDS011;2376;53.544;10.226;2023-02-04T00:26:01;1.00;;;0.90;;
4724;SDS011;2376;53.544;10.226;2023-02-04T00:28:28;1.37;;;1.27;;
4724;SDS011;2376;53.544;10.226;2023-02-04T00:30:55;1.00;;;1.00;;
4724;SDS011;2376;53.544;10.226;2023-02-04T00:33:21;1.50;;;1.07;;
4724;SDS011;2376;53.544;10.226;2023-02-04T00:35:48;0.97;;;0.97;;
4724;SDS011;2376;53.544;10.226;2023-02-04T00:38:15;1.20;;;1.20;;
4724;SDS011;2376;53.544;10.226;2023-02-04T00:40:43;2.33;;;1.17;;
4724;SDS011;2376;53.544;10.226;2023-02-04T00:43:09;3.70;;;0.90;;
4724;SDS011;2376;53.544;10.226;2023-02-04T00:45:36;0.90;;;0.90;;
4724;SDS011;2376;53.544;10.226;2023-02-04T00:48:03;1.20;;;1.10;;
4724;SDS011;2376;53.544;10.226;2023-02-04T00:50:30;1.90;;;1.10;;
4724;SDS011;2376;53.544;10.226;2023-02-04T00:52:58;2.47;;;1.13;;
4724;SDS011;2376;53.544;10.226;2023-02-04T00:55:26;1.50;;;1.40;;
4724;SDS011;2376;53.544;10.226;2023-02-04T00:57:54;1.13;;;0.87;;
4724;SDS011;2376;53.544;10.226;2023-02-04T01:00:21;1.93;;;1.17;;
4724;SDS011;2376;53.544;10.226;2023-02-04T01:02:48;1.73;;;1.10;;
4724;SDS011;2376;53.544;10.226;2023-02-04T01:05:14;1.77;;;1.20;;
4724;SDS011;2376;53.544;10.226;2023-02-04T01:07:41;1.53;;;1.53;;
4724;SDS011;2376;53.544;10.226;2023-02-04T01:10:08;3.60;;;1.00;;
4724;SDS011;2376;53.544;10.226;2023-02-04T01:12:35;1.20;;;1.10;;
4724;SDS011;2376;53.544;10.226;2023-02-04T01:15:04;1.20;;;1.10;;
4724;SDS011;2376;53.544;10.226;2023-02-04T01:17:31;3.73;;;1.10;;
4724;SDS011;2376;53.544;10.226;2023-02-04T01:19:58;2.23;;;1.17;;
4724;SDS011;2376;53.544;10.226;2023-02-04T01:22:24;4.20;;;1.20;;
4724;SDS011;2376;53.544;10.226;2023-02-04T01:24:51;1.47;;;1.37;;
4724;SDS011;2376;53.544;10.226;2023-02-04T01:27:18;1.20;;;1.20;;
4724;SDS011;2376;53.544;10.226;2023-02-04T01:29:44;1.43;;;1.33;;
4724;SDS011;2376;53.544;10.226;2023-02-04T01:32:12;2.63;;;1.53;;
4724;SDS011;2376;53.544;10.226;2023-02-04T01:34:39;1.80;;;1.20;;
4724;SDS011;2376;53.544;10.226;2023-02-04T01:37:06;1.43;;;1.30;;
4724;SDS011;2376;53.544;10.226;2023-02-04T01:39:33;1.50;;;1.40;;
4724;SDS011;2376;53.544;10.226;2023-02-04T01:42:00;2.07;;;1.00;;
4724;SDS011;2376;53.544;10.226;2023-02-04T01:44:28;1.33;;;1.23;;
4724;SDS011;2376;53.544;10.226;2023-02-04T01:46:55;1.70;;;1.10;;
4724;SDS011;2376;53.544;10.226;2023-02-04T01:49:23;2.73;;;1.30;;
4724;SDS011;2376;53.544;10.226;2023-02-04T01:51:50;1.30;;;1.20;;
4724;SDS011;2376;53.544;10.226;2023-02-04T01:54:17;2.97;;;1.27;;
4724;SDS011;2376;53.544;10.226;2023-02-04T01:56:45;1.60;;;1.50;;
4724;SDS011;2376;53.544;10.226;2023-02-04T01:59:14;4.20;;;1.63;;
4724;SDS011;2376;53.544;10.226;2023-02-04T02:01:42;1.80;;;1.40;;
4724;SDS011;2376;53.544;10.226;2023-02-04T02:04:11;2.30;;;1.20;;
4724;SDS011;2376;53.544;10.226;2023-02-04T02:10:02;2.03;;;1.50;;
4724;SDS011;2376;53.544;10.226;2023-02-04T02:12:30;1.20;;;1.20;;
4724;SDS011;2376;53.544;10.226;2023-02-04T02:14:57;1.03;;;1.03;;
4724;SDS011;2376;53.544;10.226;2023-02-04T02:17:25;1.53;;;1.43;;
4724;SDS011;2376;53.544;10.226;2023-02-04T02:19:51;1.30;;;1.20;;
4724;SDS011;2376;53.544;10.226;2023-02-04T02:22:20;1.17;;;1.10;;
4724;SDS011;2376;53.544;10.226;2023-02-04T02:24:52;5.13;;;1.53;;
4724;SDS011;2376;53.544;10.226;2023-02-04T02:27:19;1.10;;;1.00;;
4724;SDS011;2376;53.544;10.226;2023-02-04T02:29:46;2.20;;;1.67;;
4724;SDS011;2376;53.544;10.226;2023-02-04T02:32:13;1.40;;;1.33;;
4724;SDS011;2376;53.544;10.226;2023-02-04T02:34:40;1.47;;;1.37;;
4724;SDS011;2376;53.544;10.226;2023-02-04T02:37:08;2.40;;;1.20;;
4724;SDS011;2376;53.544;10.226;2023-02-04T02:39:35;1.23;;;1.17;;
4724;SDS011;2376;53.544;10.226;2023-02-04T02:42:04;3.00;;;1.37;;
4724;SDS011;2376;53.544;10.226;2023-02-04T02:44:32;1.33;;;1.20;;
4724;SDS011;2376;53.544;10.226;2023-02-04T02:46:59;1.57;;;1.47;;
4724;SDS011;2376;53.544;10.226;2023-02-04T02:49:30;1.30;;;1.20;;
4724;SDS011;2376;53.544;10.226;2023-02-04T02:51:58;2.00;;;1.90;;
4724;SDS011;2376;53.544;10.226;2023-02-04T02:54:26;1.50;;;1.50;;
4724;SDS011;2376;53.544;10.226;2023-02-04T02:56:54;2.57;;;1.53;;
4724;SDS011;2376;53.544;10.226;2023-02-04T02:59:24;1.30;;;1.30;;
4724;SDS011;2376;53.544;10.226;2023-02-04T03:01:52;1.33;;;1.30;;
4724;SDS011;2376;53.544;10.226;2023-02-04T03:04:22;2.17;;;1.60;;
4724;SDS011;2376;53.544;10.226;2023-02-04T03:06:49;1.23;;;1.23;;
4724;SDS011;2376;53.544;10.226;2023-02-04T03:09:17;1.23;;;1.23;;
4724;SDS011;2376;53.544;10.226;2023-02-04T03:11:44;1.83;;;1.37;;
4724;SDS011;2376;53.544;10.226;2023-02-04T03:14:11;1.53;;;1.43;;
4724;SDS011;2376;53.544;10.226;2023-02-04T03:16:39;2.93;;;1.73;;
4724;SDS011;2376;53.544;10.226;2023-02-04T03:19:08;2.03;;;1.77;;
4724;SDS011;2376;53.544;10.226;2023-02-04T03:21:35;2.30;;;1.40;;
4724;SDS011;2376;53.544;10.226;2023-02-04T03:24:02;2.50;;;1.73;;
4724;SDS011;2376;53.544;10.226;2023-02-04T03:26:29;8.33;;;1.80;;
4724;SDS011;2376;53.544;10.226;2023-02-04T03:28:56;2.90;;;2.00;;
4724;SDS011;2376;53.544;10.226;2023-02-04T03:31:24;1.57;;;1.47;;
4724;SDS011;2376;53.544;10.226;2023-02-04T03:33:52;3.37;;;1.97;;
4724;SDS011;2376;53.544;10.226;2023-02-04T03:36:18;1.93;;;1.83;;
4724;SDS011;2376;53.544;10.226;2023-02-04T03:38:45;1.70;;;1.60;;
4724;SDS011;2376;53.544;10.226;2023-02-04T03:41:13;2.40;;;1.40;;
4724;SDS011;2376;53.544;10.226;2023-02-04T03:43:40;2.00;;;1.90;;
4724;SDS011;2376;53.544;10.226;2023-02-04T03:46:06;2.30;;;2.10;;
4724;SDS011;2376;53.544;10.226;2023-02-04T03:48:33;1.77;;;1.67;;
4724;SDS011;2376;53.544;10.226;2023-02-04T03:51:01;2.20;;;2.10;;
4724;SDS011;2376;53.544;10.226;2023-02-04T03:53:28;1.87;;;1.77;;
4724;SDS011;2376;53.544;10.226;2023-02-04T03:55:54;1.90;;;1.80;;
4724;SDS011;2376;53.544;10.226;2023-02-04T03:58:21;2.40;;;2.20;;
4724;SDS011;2376;53.544;10.226;2023-02-04T04:00:48;1.97;;;1.87;;
4724;SDS011;2376;53.544;10.226;2023-02-04T04:03:15;2.10;;;2.00;;
4724;SDS011;2376;53.544;10.226;2023-02-04T04:05:41;2.20;;;2.10;;
4724;SDS011;2376;53.544;10.226;2023-02-04T04:08:09;2.13;;;2.03;;
4724;SDS011;2376;53.544;10.226;2023-02-04T04:10:36;5.03;;;3.33;;
4724;SDS011;2376;53.544;10.226;2023-02-04T04:13:03;4.30;;;2.20;;
4724;SDS011;2376;53.544;10.226;2023-02-04T04:15:29;2.30;;;2.20;;
4724;SDS011;2376;53.544;10.226;2023-02-04T04:17:56;1.90;;;1.80;;
4724;SDS011;2376;53.544;10.226;2023-02-04T04:20:23;2.23;;;2.10;;
4724;SDS011;2376;53.544;10.226;2023-02-04T04:22:51;3.37;;;1.93;;
4724;SDS011;2376;53.544;10.226;2023-02-04T04:25:19;3.87;;;2.83;;
4724;SDS011;2376;53.544;10.226;2023-02-04T04:27:45;3.80;;;2.50;;
4724;SDS011;2376;53.544;10.226;2023-02-04T04:30:12;2.30;;;2.20;;
4724;SDS011;2376;53.544;10.226;2023-02-04T04:32:39;4.73;;;2.40;;
4724;SDS011;2376;53.544;10.226;2023-02-04T04:35:06;2.70;;;2.30;;
4724;SDS011;2376;53.544;10.226;2023-02-04T04:37:32;2.07;;;1.87;;
4724;SDS011;2376;53.544;10.226;2023-02-04T04:39:59;2.70;;;2.50;;
4724;SDS011;2376;53.544;10.226;2023-02-04T04:42:28;2.00;;;1.90;;
4724;SDS011;2376;53.544;10.226;2023-02-04T04:44:54;2.33;;;2.17;;
4724;SDS011;2376;53.544;10.226;2023-02-04T04:47:21;2.53;;;2.00;;
4724;SDS011;2376;53.544;10.226;2023-02-04T04:49:48;2.30;;;2.20;;
4724;SDS011;2376;53.544;10.226;2023-02-04T04:52:14;3.23;;;2.80;;
4724;SDS011;2376;53.544;10.226;2023-02-04T04:54:41;2.30;;;2.20;;
4724;SDS011;2376;53.544;10.226;2023-02-04T04:57:08;3.97;;;2.07;;
4724;SDS011;2376;53.544;10.226;2023-02-04T04:59:36;3.43;;;2.30;;
4724;SDS011;2376;53.544;10.226;2023-02-04T05:02:02;2.73;;;2.40;;
4724;SDS011;2376;53.544;10.226;2023-02-04T05:04:29;2.23;;;2.03;;
4724;SDS011;2376;53.544;10.226;2023-02-04T05:06:56;2.27;;;2.17;;
4724;SDS011;2376;53.544;10.226;2023-02-04T05:09:22;2.33;;;2.23;;
4724;SDS011;2376;53.544;10.226;2023-02-04T05:11:49;3.13;;;2.93;;
4724;SDS011;2376;53.544;10.226;2023-02-04T05:14:16;2.13;;;2.03;;
4724;SDS011;2376;53.544;10.226;2023-02-04T05:16:44;5.67;;;2.97;;
4724;SDS011;2376;53.544;10.226;2023-02-04T05:19:10;3.03;;;2.43;;
4724;SDS011;2376;53.544;10.226;2023-02-04T05:21:37;1.87;;;1.77;;
4724;SDS011;2376;53.544;10.226;2023-02-04T05:24:04;1.93;;;1.83;;
4724;SDS011;2376;53.544;10.226;2023-02-04T05:26:31;2.60;;;2.40;;
4724;SDS011;2376;53.544;10.226;2023-02-04T05:28:58;2.30;;;2.10;;
4724;SDS011;2376;53.544;10.226;2023-02-04T05:31:25;2.97;;;2.70;;
4724;SDS011;2376;53.544;10.226;2023-02-04T05:33:53;2.47;;;2.37;;
4724;SDS011;2376;53.544;10.226;2023-02-04T05:36:20;2.70;;;2.50;;
4724;SDS011;2376;53.544;10.226;2023-02-04T05:38:46;3.87;;;2.70;;
4724;SDS011;2376;53.544;10.226;2023-02-04T05:41:13;3.03;;;2.83;;
4724;SDS011;2376;53.544;10.226;2023-02-04T05:43:40;3.40;;;2.70;;
4724;SDS011;2376;53.544;10.226;2023-02-04T05:46:07;2.50;;;2.30;;
4724;SDS011;2376;53.544;10.226;2023-02-04T05:48:34;3.53;;;2.80;;
4724;SDS011;2376;53.544;10.226;2023-02-04T05:51:02;3.13;;;2.93;;
4724;SDS011;2376;53.544;10.226;2023-02-04T05:53:29;3.17;;;2.97;;
4724;SDS011;2376;53.544;10.226;2023-02-04T05:55:56;4.20;;;2.47;;
4724;SDS011;2376;53.544;10.226;2023-02-04T05:58:23;2.60;;;2.50;;
4724;SDS011;2376;53.544;10.226;2023-02-04T06:00:49;3.07;;;2.87;;
4724;SDS011;2376;53.544;10.226;2023-02-04T06:03:16;2.40;;;2.30;;
4724;SDS011;2376;53.544;10.226;2023-02-04T06:05:43;2.00;;;1.90;;
4724;SDS011;2376;53.544;10.226;2023-02-04T06:08:11;2.90;;;2.43;;
4724;SDS011;2376;53.544;10.226;2023-02-04T06:10:39;3.93;;;3.20;;
4724;SDS011;2376;53.544;10.226;2023-02-04T06:13:06;2.80;;;2.57;;
4724;SDS011;2376;53.544;10.226;2023-02-04T06:15:33;2.80;;;2.70;;
4724;SDS011;2376;53.544;10.226;2023-02-04T06:18:00;3.20;;;2.87;;
4724;SDS011;2376;53.544;10.226;2023-02-04T06:20:26;2.40;;;2.20;;
4724;SDS011;2376;53.544;10.226;2023-02-04T06:22:53;3.03;;;2.80;;
4724;SDS011;2376;53.544;10.226;2023-02-04T06:25:21;3.07;;;2.83;;
4724;SDS011;2376;53.544;10.226;2023-02-04T06:27:48;5.43;;;3.43;;
4724;SDS011;2376;53.544;10.226;2023-02-04T06:30:16;2.90;;;2.80;;
4724;SDS011;2376;53.544;10.226;2023-02-04T06:32:43;6.10;;;3.03;;
4724;SDS011;2376;53.544;10.226;2023-02-04T06:35:12;2.83;;;2.63;;
4724;SDS011;2376;53.544;10.226;2023-02-04T06:37:40;2.57;;;2.37;;
4724;SDS011;2376;53.544;10.226;2023-02-04T06:40:08;3.23;;;3.03;;
4724;SDS011;2376;53.544;10.226;2023-02-04T06:42:37;2.70;;;2.50;;
4724;SDS011;2376;53.544;10.226;2023-02-04T06:45:04;3.87;;;3.47;;
4724;SDS011;2376;53.544;10.226;2023-02-04T06:47:31;3.20;;;3.00;;
4724;SDS011;2376;53.544;10.226;2023-02-04T06:49:58;2.97;;;2.77;;
4724;SDS011;2376;53.544;10.226;2023-02-04T06:52:25;3.73;;;3.43;;
4724;SDS011;2376;53.544;10.226;2023-02-04T06:54:52;3.13;;;2.93;;
4724;SDS011;2376;53.544;10.226;2023-02-04T06:57:18;3.47;;;3.27;;
4724;SDS011;2376;53.544;10.226;2023-02-04T06:59:46;3.40;;;3.13;;
4724;SDS011;2376;53.544;10.226;2023-02-04T07:02:13;3.17;;;2.97;;
4724;SDS011;2376;53.544;10.226;2023-02-04T07:04:40;3.17;;;2.87;;
4724;SDS011;2376;53.544;10.226;2023-02-04T07:07:07;3.43;;;3.07;;
4724;SDS011;2376;53.544;10.226;2023-02-04T07:09:34;4.73;;;3.50;;
4724;SDS011;2376;53.544;10.226;2023-02-04T07:12:01;3.00;;;2.80;;
4724;SDS011;2376;53.544;10.226;2023-02-04T07:14:28;2.83;;;2.63;;
4724;SDS011;2376;53.544;10.226;2023-02-04T07:16:56;3.90;;;3.17;;
4724;SDS011;2376;53.544;10.226;2023-02-04T07:19:23;3.40;;;3.20;;
4724;SDS011;2376;53.544;10.226;2023-02-04T07:21:49;3.60;;;3.40;;
4724;SDS011;2376;53.544;10.226;2023-02-04T07:24:18;6.10;;;3.20;;
4724;SDS011;2376;53.544;10.226;2023-02-04T07:26:45;4.83;;;3.10;;
4724;SDS011;2376;53.544;10.226;2023-02-04T07:29:12;3.97;;;3.57;;
4724;SDS011;2376;53.544;10.226;2023-02-04T07:31:38;4.53;;;2.97;;
4724;SDS011;2376;53.544;10.226;2023-02-04T07:34:06;3.53;;;3.37;;
4724;SDS011;2376;53.544;10.226;2023-02-04T07:36:33;3.57;;;3.37;;
4724;SDS011;2376;53.544;10.226;2023-02-04T07:39:00;2.70;;;2.50;;
4724;SDS011;2376;53.544;10.226;2023-02-04T07:41:26;3.00;;;2.80;;
4724;SDS011;2376;53.544;10.226;2023-02-04T07:43:53;3.27;;;3.07;;
4724;SDS011;2376;53.544;10.226;2023-02-04T07:46:20;6.10;;;3.13;;
4724;SDS011;2376;53.544;10.226;2023-02-04T07:48:46;3.93;;;3.63;;
4724;SDS011;2376;53.544;10.226;2023-02-04T07:51:14;4.03;;;3.33;;
4724;SDS011;2376;53.544;10.226;2023-02-04T07:53:41;4.93;;;4.50;;
4724;SDS011;2376;53.544;10.226;2023-02-04T07:56:08;4.40;;;4.00;;
4724;SDS011;2376;53.544;10.226;2023-02-04T07:58:37;4.17;;;3.53;;
4724;SDS011;2376;53.544;10.226;2023-02-04T08:01:04;3.70;;;3.40;;
4724;SDS011;2376;53.544;10.226;2023-02-04T08:03:31;4.13;;;3.77;;
4724;SDS011;2376;53.544;10.226;2023-02-04T08:05:57;4.70;;;4.40;;
4724;SDS011;2376;53.544;10.226;2023-02-04T08:08:25;4.17;;;3.73;;
4724;SDS011;2376;53.544;10.226;2023-02-04T08:10:52;4.90;;;4.20;;
4724;SDS011;2376;53.544;10.226;2023-02-04T08:13:19;4.50;;;4.23;;
4724;SDS011;2376;53.544;10.226;2023-02-04T08:15:45;5.00;;;4.60;;
4724;SDS011;2376;53.544;10.226;2023-02-04T08:18:12;4.47;;;4.10;;
4724;SDS011;2376;53.544;10.226;2023-02-04T08:20:38;4.40;;;4.00;;
4724;SDS011;2376;53.544;10.226;2023-02-04T08:23:05;4.77;;;4.30;;
4724;SDS011;2376;53.544;10.226;2023-02-04T08:25:33;4.93;;;4.40;;
4724;SDS011;2376;53.544;10.226;2023-02-04T08:28:00;4.43;;;4.10;;
4724;SDS011;2376;53.544;10.226;2023-02-04T08:30:26;5.80;;;4.73;;
4724;SDS011;2376;53.544;10.226;2023-02-04T08:32:53;5.30;;;4.90;;
4724;SDS011;2376;53.544;10.226;2023-02-04T08:35:20;4.77;;;4.37;;
4724;SDS011;2376;53.544;10.226;2023-02-04T08:37:47;4.20;;;3.80;;
4724;SDS011;2376;53.544;10.226;2023-02-04T08:40:13;6.53;;;4.40;;
4724;SDS011;2376;53.544;10.226;2023-02-04T08:42:42;9.50;;;5.23;;
4724;SDS011;2376;53.544;10.226;2023-02-04T08:45:08;8.93;;;4.37;;
4724;SDS011;2376;53.544;10.226;2023-02-04T08:47:35;5.20;;;4.83;;
4724;SDS011;2376;53.544;10.226;2023-02-04T08:50:02;8.80;;;5.07;;
4724;SDS011;2376;53.544;10.226;2023-02-04T08:52:28;4.30;;;4.00;;
4724;SDS011;2376;53.544;10.226;2023-02-04T08:54:55;7.60;;;4.30;;
4724;SDS011;2376;53.544;10.226;2023-02-04T08:57:22;4.80;;;4.40;;
4724;SDS011;2376;53.544;10.226;2023-02-04T08:59:50;3.33;;;3.13;;
4724;SDS011;2376;53.544;10.226;2023-02-04T09:02:17;3.60;;;3.30;;
4724;SDS011;2376;53.544;10.226;2023-02-04T09:04:43;3.00;;;2.80;;
4724;SDS011;2376;53.544;10.226;2023-02-04T09:07:10;3.30;;;3.10;;
4724;SDS011;2376;53.544;10.226;2023-02-04T09:09:37;3.80;;;3.50;;
4724;SDS011;2376;53.544;10.226;2023-02-04T09:12:03;2.77;;;2.57;;
4724;SDS011;2376;53.544;10.226;2023-02-04T09:14:30;2.80;;;2.20;;
4724;SDS011;2376;53.544;10.226;2023-02-04T09:16:58;2.37;;;2.27;;
4724;SDS011;2376;53.544;10.226;2023-02-04T09:19:25;4.30;;;2.20;;
4724;SDS011;2376;53.544;10.226;2023-02-04T09:21:52;2.50;;;2.10;;
4724;SDS011;2376;53.544;10.226;2023-02-04T09:24:19;1.70;;;1.60;;
4724;SDS011;2376;53.544;10.226;2023-02-04T09:26:47;2.60;;;1.83;;
4724;SDS011;2376;53.544;10.226;2023-02-04T09:29:14;3.73;;;1.97;;
4724;SDS011;2376;53.544;10.226;2023-02-04T09:31:40;1.93;;;1.83;;
4724;SDS011;2376;53.544;10.226;2023-02-04T09:34:08;1.30;;;1.30;;
4724;SDS011;2376;53.544;10.226;2023-02-04T09:36:35;1.67;;;1.57;;
4724;SDS011;2376;53.544;10.226;2023-02-04T09:39:03;1.37;;;1.27;;
4724;SDS011;2376;53.544;10.226;2023-02-04T09:41:32;2.10;;;1.53;;
4724;SDS011;2376;53.544;10.226;2023-02-04T09:44:03;2.30;;;1.70;;
4724;SDS011;2376;53.544;10.226;2023-02-04T09:46:31;1.30;;;1.20;;
4724;SDS011;2376;53.544;10.226;2023-02-04T09:48:58;1.50;;;1.40;;
4724;SDS011;2376;53.544;10.226;2023-02-04T09:51:29;1.67;;;1.57;;
4724;SDS011;2376;53.544;10.226;2023-02-04T09:54:01;1.60;;;1.50;;
4724;SDS011;2376;53.544;10.226;2023-02-04T09:56:31;1.67;;;1.10;;
4724;SDS011;2376;53.544;10.226;2023-02-04T09:59:02;1.40;;;1.30;;
4724;SDS011;2376;53.544;10.226;2023-02-04T10:01:30;2.60;;;1.80;;
4724;SDS011;2376;53.544;10.226;2023-02-04T10:03:59;1.60;;;1.50;;
4724;SDS011;2376;53.544;10.226;2023-02-04T10:06:37;1.37;;;1.27;;
4724;SDS011;2376;53.544;10.226;2023-02-04T10:09:05;1.00;;;1.00;;
4724;SDS011;2376;53.544;10.226;2023-02-04T10:11:33;2.07;;;1.10;;
4724;SDS011;2376;53.544;10.226;2023-02-04T10:14:02;1.60;;;1.50;;
4724;SDS011;2376;53.544;10.226;2023-02-04T10:16:30;1.73;;;1.10;;
4724;SDS011;2376;53.544;10.226;2023-02-04T10:19:01;1.07;;;0.80;;
4724;SDS011;2376;53.544;10.226;2023-02-04T10:21:31;1.80;;;1.10;;
4724;SDS011;2376;53.544;10.226;2023-02-04T10:24:01;2.00;;;1.23;;
4724;SDS011;2376;53.544;10.226;2023-02-04T10:26:30;1.90;;;1.13;;
4724;SDS011;2376;53.544;10.226;2023-02-04T10:28:59;2.00;;;1.33;;
4724;SDS011;2376;53.544;10.226;2023-02-04T10:31:31;1.87;;;1.30;;
4724;SDS011;2376;53.544;10.226;2023-02-04T10:34:06;2.50;;;1.20;;
4724;SDS011;2376;53.544;10.226;2023-02-04T10:36:38;1.47;;;1.37;;
4724;SDS011;2376;53.544;10.226;2023-02-04T10:39:09;1.43;;;1.33;;
4724;SDS011;2376;53.544;10.226;2023-02-04T10:41:37;2.13;;;2.00;;
4724;SDS011;2376;53.544;10.226;2023-02-04T10:44:10;3.13;;;1.40;;
4724;SDS011;2376;53.544;10.226;2023-02-04T10:46:38;3.00;;;1.87;;
4724;SDS011;2376;53.544;10.226;2023-02-04T10:49:14;2.27;;;2.07;;
4724;SDS011;2376;53.544;10.226;2023-02-04T10:51:44;1.80;;;1.30;;
4724;SDS011;2376;53.544;10.226;2023-02-04T10:54:12;1.80;;;1.80;;
4724;SDS011;2376;53.544;10.226;2023-02-04T10:56:59;2.23;;;2.07;;
4724;SDS011;2376;53.544;10.226;2023-02-04T10:59:32;1.77;;;1.67;;
4724;SDS011;2376;53.544;10.226;2023-02-04T11:02:00;4.30;;;1.70;;
4724;SDS011;2376;53.544;10.226;2023-02-04T11:04:44;5.63;;;1.70;;
4724;SDS011;2376;53.544;10.226;2023-02-04T11:07:12;1.30;;;1.30;;
4724;SDS011;2376;53.544;10.226;2023-02-04T11:09:39;2.90;;;1.50;;
4724;SDS011;2376;53.544;10.226;2023-02-04T11:12:17;1.50;;;1.30;;
4724;SDS011;2376;53.544;10.226;2023-02-04T11:14:53;0.90;;;0.90;;
4724;SDS011;2376;53.544;10.226;2023-02-04T11:17:20;2.10;;;1.30;;
4724;SDS011;2376;53.544;10.226;2023-02-04T11:20:14;1.00;;;1.00;;
4724;SDS011;2376;53.544;10.226;2023-02-04T11:22:44;1.13;;;1.03;;
4724;SDS011;2376;53.544;10.226;2023-02-04T11:27:58;1.57;;;1.00;;
4724;SDS011;2376;53.544;10.226;2023-02-04T11:30:30;1.93;;;1.20;;
4724;SDS011;2376;53.544;10.226;2023-02-04T11:33:00;1.57;;;1.30;;
4724;SDS011;2376;53.544;10.226;2023-02-04T11:35:29;1.07;;;1.00;;
4724;SDS011;2376;53.544;10.226;2023-02-04T11:37:58;1.53;;;0.90;;
4724;SDS011;2376;53.544;10.226;2023-02-04T11:40:26;1.20;;;1.10;;
4724;SDS011;2376;53.544;10.226;2023-02-04T11:42:56;2.07;;;1.00;;
4724;SDS011;2376;53.544;10.226;2023-02-04T11:45:29;1.13;;;0.90;;
4724;SDS011;2376;53.544;10.226;2023-02-04T11:47:58;2.43;;;1.17;;
4724;SDS011;2376;53.544;10.226;2023-02-04T11:50:28;1.67;;;1.10;;
4724;SDS011;2376;53.544;10.226;2023-02-04T11:52:56;2.07;;;1.00;;
4724;SDS011;2376;53.544;10.226;2023-02-04T11:55:27;1.27;;;1.17;;
4724;SDS011;2376;53.544;10.226;2023-02-04T11:57:55;2.10;;;1.00;;
4724;SDS011;2376;53.544;10.226;2023-02-04T12:00:23;1.13;;;0.97;;
4724;SDS011;2376;53.544;10.226;2023-02-04T12:02:54;1.10;;;1.10;;
4724;SDS011;2376;53.544;10.226;2023-02-04T12:05:28;0.80;;;0.80;;
4724;SDS011;2376;53.544;10.226;2023-02-04T12:08:24;1.00;;;1.00;;
4724;SDS011;2376;53.544;10.226;2023-02-04T12:11:02;1.70;;;1.03;;
4724;SDS011;2376;53.544;10.226;2023-02-04T12:13:31;2.73;;;1.40;;
4724;SDS011;2376;53.544;10.226;2023-02-04T12:15:59;0.87;;;0.87;;
4724;SDS011;2376;53.544;10.226;2023-02-04T12:18:27;1.83;;;1.20;;
4724;SDS011;2376;53.544;10.226;2023-02-04T12:20:54;1.00;;;0.90;;
4724;SDS011;2376;53.544;10.226;2023-02-04T12:23:24;1.17;;;1.00;;
4724;SDS011;2376;53.544;10.226;2023-02-04T12:25:51;1.10;;;0.93;;
4724;SDS011;2376;53.544;10.226;2023-02-04T12:28:18;1.00;;;1.00;;
4724;SDS011;2376;53.544;10.226;2023-02-04T12:30:45;1.00;;;1.00;;
4724;SDS011;2376;53.544;10.226;2023-02-04T12:33:12;1.27;;;1.17;;
4724;SDS011;2376;53.544;10.226;2023-02-04T12:35:40;5.77;;;1.10;;
4724;SDS011;2376;53.544;10.226;2023-02-04T12:38:07;1.60;;;1.17;;
4724;SDS011;2376;53.544;10.226;2023-02-04T12:40:36;1.10;;;1.03;;
4724;SDS011;2376;53.544;10.226;2023-02-04T12:43:03;1.00;;;1.00;;
4724;SDS011;2376;53.544;10.226;2023-02-04T12:45:30;2.13;;;1.30;;
4724;SDS011;2376;53.544;10.226;2023-02-04T12:47:57;1.67;;;1.10;;
4724;SDS011;2376;53.544;10.226;2023-02-04T12:50:24;2.43;;;1.40;;
4724;SDS011;2376;53.544;10.226;2023-02-04T12:52:52;1.10;;;1.10;;
4724;SDS011;2376;53.544;10.226;2023-02-04T12:55:20;3.23;;;1.20;;
4724;SDS011;2376;53.544;10.226;2023-02-04T12:57:50;1.67;;;1.00;;
4724;SDS011;2376;53.544;10.226;2023-02-04T13:00:24;0.93;;;0.90;;
4724;SDS011;2376;53.544;10.226;2023-02-04T13:03:10;1.33;;;1.23;;
4724;SDS011;2376;53.544;10.226;2023-02-04T13:05:53;1.00;;;1.00;;
4724;SDS011;2376;53.544;10.226;2023-02-04T13:08:20;1.20;;;1.10;;
4724;SDS011;2376;53.544;10.226;2023-02-04T13:10:48;3.90;;;1.13;;
4724;SDS011;2376;53.544;10.226;2023-02-04T13:13:18;0.90;;;0.90;;
4724;SDS011;2376;53.544;10.226;2023-02-04T13:15:46;0.80;;;0.80;;
4724;SDS011;2376;53.544;10.226;2023-02-04T13:18:18;1.93;;;1.30;;
4724;SDS011;2376;53.544;10.226;2023-02-04T13:20:47;1.27;;;1.10;;
4724;SDS011;2376;53.544;10.226;2023-02-04T13:23:18;2.53;;;1.53;;
4724;SDS011;2376;53.544;10.226;2023-02-04T13:25:45;1.00;;;1.00;;
4724;SDS011;2376;53.544;10.226;2023-02-04T13:28:19;1.17;;;1.07;;
4724;SDS011;2376;53.544;10.226;2023-02-04T13:30:59;2.33;;;1.03;;
4724;SDS011;2376;53.544;10.226;2023-02-04T13:33:40;1.17;;;1.10;;
4724;SDS011;2376;53.544;10.226;2023-02-04T13:36:10;1.10;;;1.10;;
4724;SDS011;2376;53.544;10.226;2023-02-04T13:38:37;1.40;;;1.13;;
4724;SDS011;2376;53.544;10.226;2023-02-04T13:41:04;2.47;;;1.10;;
4724;SDS011;2376;53.544;10.226;2023-02-04T13:43:33;1.07;;;0.97;;
4724;SDS011;2376;53.544;10.226;2023-02-04T13:46:00;1.10;;;1.07;;
4724;SDS011;2376;53.544;10.226;2023-02-04T13:48:29;1.00;;;0.90;;
4724;SDS011;2376;53.544;10.226;2023-02-04T13:51:22;0.90;;;0.90;;
4724;SDS011;2376;53.544;10.226;2023-02-04T13:54:28;1.90;;;1.10;;
4724;SDS011;2376;53.544;10.226;2023-02-04T13:57:05;0.90;;;0.90;;
4724;SDS011;2376;53.544;10.226;2023-02-04T13:59:47;2.70;;;1.10;;
4724;SDS011;2376;53.544;10.226;2023-02-04T14:02:14;2.00;;;1.07;;
4724;SDS011;2376;53.544;10.226;2023-02-04T14:04:40;0.93;;;0.93;;
4724;SDS011;2376;53.544;10.226;2023-02-04T14:07:08;1.53;;;1.43;;
4724;SDS011;2376;53.544;10.226;2023-02-04T14:09:35;0.90;;;0.90;;
4724;SDS011;2376;53.544;10.226;2023-02-04T14:12:07;2.30;;;1.10;;
4724;SDS011;2376;53.544;10.226;2023-02-04T14:14:57;1.40;;;1.30;;
4724;SDS011;2376;53.544;10.226;2023-02-04T14:18:09;1.17;;;1.07;;
4724;SDS011;2376;53.544;10.226;2023-02-04T14:20:40;2.47;;;1.17;;
4724;SDS011;2376;53.544;10.226;2023-02-04T14:23:10;1.20;;;0.80;;
4724;SDS011;2376;53.544;10.226;2023-02-04T14:25:39;1.13;;;1.13;;
4724;SDS011;2376;53.544;10.226;2023-02-04T14:28:12;1.43;;;1.17;;
4724;SDS011;2376;53.544;10.226;2023-02-04T14:30:40;0.90;;;0.90;;
4724;SDS011;2376;53.544;10.226;2023-02-04T14:33:07;0.90;;;0.90;;
4724;SDS011;2376;53.544;10.226;2023-02-04T14:35:34;2.03;;;1.30;;
4724;SDS011;2376;53.544;10.226;2023-02-04T14:38:04;1.17;;;1.17;;
4724;SDS011;2376;53.544;10.226;2023-02-04T14:40:31;1.50;;;0.83;;
4724;SDS011;2376;53.544;10.226;2023-02-04T14:43:00;1.13;;;1.03;;
4724;SDS011;2376;53.544;10.226;2023-02-04T14:45:27;1.00;;;0.90;;
4724;SDS011;2376;53.544;10.226;2023-02-04T14:47:56;1.57;;;1.10;;
4724;SDS011;2376;53.544;10.226;2023-02-04T14:50:24;1.40;;;1.30;;
4724;SDS011;2376;53.544;10.226;2023-02-04T14:52:52;1.17;;;1.17;;
4724;SDS011;2376;53.544;10.226;2023-02-04T14:55:22;3.73;;;1.10;;
4724;SDS011;2376;53.544;10.226;2023-02-04T14:58:14;1.20;;;1.20;;
4724;SDS011;2376;53.544;10.226;2023-02-04T15:01:13;2.60;;;1.87;;
4724;SDS011;2376;53.544;10.226;2023-02-04T15:17:12;0.90;;;0.90;;
4724;SDS011;2376;53.544;10.226;2023-02-04T15:19:39;1.07;;;1.07;;
4724;SDS011;2376;53.544;10.226;2023-02-04T15:22:06;1.73;;;0.90;;
4724;SDS011;2376;53.544;10.226;2023-02-04T15:24:32;1.30;;;1.30;;
4724;SDS011;2376;53.544;10.226;2023-02-04T15:26:59;1.30;;;1.20;;
4724;SDS011;2376;53.544;10.226;2023-02-04T15:29:26;1.37;;;1.37;;